sensor_id;sensor_type;location;lat;lon;timestamp;P1;durP1;ratioP1;P2;durP2;ratioP2
63534;SDS011;55128;50.230;18.944;2024-03-23T00:56:47;22.33;;;15.35;;
63534;SDS011;55128;50.230;18.944;2024-03-23T01:01:48;23.00;;;18.33;;
63534;SDS011;55128;50.230;18.944;2024-03-23T01:06:48;23.38;;;15.52;;
63534;SDS011;55128;50.230;18.944;2024-03-23T01:11:49;27.13;;;16.98;;
63534;SDS011;55128;50.230;18.944;2024-03-23T01:16:49;21.52;;;14.63;;
63534;SDS011;55128;50.230;18.944;2024-03-23T01:21:50;21.40;;;14.45;;
63534;SDS011;55128;50.230;18.944;2024-03-23T01:26:50;20.03;;;13.57;;
63534;SDS011;55128;50.230;18.944;2024-03-23T01:31:50;22.30;;;13.60;;
63534;SDS011;55128;50.230;18.944;2024-03-23T01:36:51;21.30;;;13.45;;
63534;SDS011;55128;50.230;18.944;2024-03-23T01:41:51;24.87;;;17.63;;
63534;SDS011;55128;50.230;18.944;2024-03-23T01:46:52;22.48;;;17.10;;
63534;SDS011;55128;50.230;18.944;2024-03-23T01:51:52;26.52;;;16.27;;
63534;SDS011;55128;50.230;18.944;2024-03-23T01:56:53;22.13;;;15.13;;
63534;SDS011;55128;50.230;18.944;2024-03-23T02:01:55;33.58;;;19.85;;
63534;SDS011;55128;50.230;18.944;2024-03-23T02:06:55;25.55;;;17.20;;
63534;SDS011;55128;50.230;18.944;2024-03-23T02:11:56;28.33;;;18.67;;
63534;SDS011;55128;50.230;18.944;2024-03-23T02:16:56;24.47;;;16.57;;
63534;SDS011;55128;50.230;18.944;2024-03-23T02:21:56;26.00;;;17.43;;
63534;SDS011;55128;50.230;18.944;2024-03-23T02:26:57;26.23;;;17.43;;
63534;SDS011;55128;50.230;18.944;2024-03-23T02:31:57;27.03;;;16.40;;
63534;SDS011;55128;50.230;18.944;2024-03-23T02:36:58;24.13;;;15.68;;
63534;SDS011;55128;50.230;18.944;2024-03-23T02:41:59;34.78;;;21.65;;
63534;SDS011;55128;50.230;18.944;2024-03-23T02:46:59;27.93;;;18.70;;
63534;SDS011;55128;50.230;18.944;2024-03-23T02:51:59;25.20;;;17.80;;
63534;SDS011;55128;50.230;18.944;2024-03-23T02:57:00;25.23;;;15.85;;
63534;SDS011;55128;50.230;18.944;2024-03-23T03:02:00;22.65;;;14.60;;
63534;SDS011;55128;50.230;18.944;2024-03-23T03:07:01;20.80;;;14.10;;
63534;SDS011;55128;50.230;18.944;2024-03-23T03:12:01;26.53;;;15.40;;
63534;SDS011;55128;50.230;18.944;2024-03-23T03:17:03;24.58;;;15.15;;
63534;SDS011;55128;50.230;18.944;2024-03-23T03:22:03;25.52;;;17.73;;
63534;SDS011;55128;50.230;18.944;2024-03-23T03:27:04;28.35;;;18.42;;
63534;SDS011;55128;50.230;18.944;2024-03-23T03:32:06;23.63;;;15.35;;
63534;SDS011;55128;50.230;18.944;2024-03-23T03:37:07;28.45;;;17.75;;
63534;SDS011;55128;50.230;18.944;2024-03-23T03:42:07;28.40;;;18.33;;
63534;SDS011;55128;50.230;18.944;2024-03-23T03:47:08;26.35;;;17.17;;
63534;SDS011;55128;50.230;18.944;2024-03-23T03:52:08;27.70;;;18.27;;
63534;SDS011;55128;50.230;18.944;2024-03-23T03:57:08;26.27;;;18.10;;
63534;SDS011;55128;50.230;18.944;2024-03-23T04:02:09;23.93;;;17.67;;
63534;SDS011;55128;50.230;18.944;2024-03-23T04:07:09;26.73;;;17.08;;
63534;SDS011;55128;50.230;18.944;2024-03-23T04:12:10;25.40;;;16.88;;
63534;SDS011;55128;50.230;18.944;2024-03-23T04:17:10;25.98;;;16.63;;
63534;SDS011;55128;50.230;18.944;2024-03-23T04:22:11;35.40;;;21.73;;
63534;SDS011;55128;50.230;18.944;2024-03-23T04:27:11;28.02;;;19.80;;
63534;SDS011;55128;50.230;18.944;2024-03-23T04:32:12;26.63;;;19.23;;
63534;SDS011;55128;50.230;18.944;2024-03-23T04:37:14;27.95;;;18.95;;
63534;SDS011;55128;50.230;18.944;2024-03-23T04:42:14;31.48;;;22.13;;
63534;SDS011;55128;50.230;18.944;2024-03-23T04:47:16;29.35;;;20.17;;
63534;SDS011;55128;50.230;18.944;2024-03-23T04:52:17;30.75;;;21.77;;
63534;SDS011;55128;50.230;18.944;2024-03-23T04:57:18;31.02;;;20.83;;
63534;SDS011;55128;50.230;18.944;2024-03-23T05:02:18;28.88;;;20.95;;
63534;SDS011;55128;50.230;18.944;2024-03-23T05:07:18;25.60;;;16.95;;
63534;SDS011;55128;50.230;18.944;2024-03-23T05:12:19;26.88;;;17.60;;
63534;SDS011;55128;50.230;18.944;2024-03-23T05:17:19;29.65;;;21.63;;
63534;SDS011;55128;50.230;18.944;2024-03-23T05:22:19;30.33;;;20.97;;
63534;SDS011;55128;50.230;18.944;2024-03-23T05:27:20;30.23;;;20.20;;
63534;SDS011;55128;50.230;18.944;2024-03-23T05:32:20;26.92;;;20.15;;
63534;SDS011;55128;50.230;18.944;2024-03-23T05:37:21;31.20;;;20.95;;
63534;SDS011;55128;50.230;18.944;2024-03-23T05:42:22;24.48;;;17.08;;
63534;SDS011;55128;50.230;18.944;2024-03-23T05:47:23;19.80;;;13.57;;
63534;SDS011;55128;50.230;18.944;2024-03-23T05:52:23;20.20;;;13.35;;
63534;SDS011;55128;50.230;18.944;2024-03-23T05:57:25;21.33;;;14.52;;
63534;SDS011;55128;50.230;18.944;2024-03-23T06:02:25;23.33;;;15.77;;
63534;SDS011;55128;50.230;18.944;2024-03-23T06:07:26;16.90;;;12.97;;
63534;SDS011;55128;50.230;18.944;2024-03-23T06:12:27;23.92;;;16.92;;
63534;SDS011;55128;50.230;18.944;2024-03-23T06:17:27;19.27;;;13.48;;
63534;SDS011;55128;50.230;18.944;2024-03-23T06:22:27;20.13;;;15.00;;
63534;SDS011;55128;50.230;18.944;2024-03-23T06:27:28;20.35;;;15.43;;
63534;SDS011;55128;50.230;18.944;2024-03-23T06:32:29;22.75;;;19.35;;
63534;SDS011;55128;50.230;18.944;2024-03-23T06:37:29;23.75;;;15.85;;
63534;SDS011;55128;50.230;18.944;2024-03-23T06:42:29;22.17;;;15.43;;
63534;SDS011;55128;50.230;18.944;2024-03-23T06:47:30;22.00;;;14.00;;
63534;SDS011;55128;50.230;18.944;2024-03-23T06:52:31;19.73;;;14.43;;
63534;SDS011;55128;50.230;18.944;2024-03-23T06:57:31;22.95;;;15.25;;
63534;SDS011;55128;50.230;18.944;2024-03-23T07:02:32;25.98;;;17.15;;
63534;SDS011;55128;50.230;18.944;2024-03-23T07:07:32;20.47;;;13.80;;
63534;SDS011;55128;50.230;18.944;2024-03-23T07:12:32;20.45;;;14.88;;
63534;SDS011;55128;50.230;18.944;2024-03-23T07:17:33;17.47;;;12.60;;
63534;SDS011;55128;50.230;18.944;2024-03-23T07:22:35;19.02;;;13.38;;
63534;SDS011;55128;50.230;18.944;2024-03-23T07:27:35;14.97;;;12.10;;
63534;SDS011;55128;50.230;18.944;2024-03-23T07:32:35;14.15;;;10.25;;
63534;SDS011;55128;50.230;18.944;2024-03-23T07:37:36;16.83;;;12.27;;
63534;SDS011;55128;50.230;18.944;2024-03-23T07:42:36;16.83;;;12.33;;
63534;SDS011;55128;50.230;18.944;2024-03-23T07:47:37;21.45;;;13.68;;
63534;SDS011;55128;50.230;18.944;2024-03-23T07:52:37;21.88;;;15.10;;
63534;SDS011;55128;50.230;18.944;2024-03-23T07:57:37;14.07;;;11.73;;
63534;SDS011;55128;50.230;18.944;2024-03-23T08:02:38;15.67;;;10.73;;
63534;SDS011;55128;50.230;18.944;2024-03-23T08:07:38;12.77;;;10.75;;
63534;SDS011;55128;50.230;18.944;2024-03-23T08:12:39;11.30;;;10.23;;
63534;SDS011;55128;50.230;18.944;2024-03-23T08:17:39;10.50;;;9.50;;
63534;SDS011;55128;50.230;18.944;2024-03-23T08:22:40;8.67;;;7.73;;
63534;SDS011;55128;50.230;18.944;2024-03-23T08:27:40;9.63;;;7.90;;
63534;SDS011;55128;50.230;18.944;2024-03-23T08:32:41;10.52;;;7.47;;
63534;SDS011;55128;50.230;18.944;2024-03-23T08:37:42;8.68;;;7.72;;
63534;SDS011;55128;50.230;18.944;2024-03-23T08:42:42;8.30;;;7.37;;
63534;SDS011;55128;50.230;18.944;2024-03-23T08:47:43;9.55;;;7.60;;
63534;SDS011;55128;50.230;18.944;2024-03-23T08:52:44;9.75;;;7.40;;
63534;SDS011;55128;50.230;18.944;2024-03-23T08:57:44;8.35;;;7.28;;
63534;SDS011;55128;50.230;18.944;2024-03-23T09:02:47;9.23;;;7.43;;
63534;SDS011;55128;50.230;18.944;2024-03-23T09:07:48;9.88;;;7.47;;
63534;SDS011;55128;50.230;18.944;2024-03-23T09:12:48;9.48;;;7.88;;
63534;SDS011;55128;50.230;18.944;2024-03-23T09:17:48;8.37;;;7.10;;
63534;SDS011;55128;50.230;18.944;2024-03-23T09:22:49;7.43;;;6.53;;
63534;SDS011;55128;50.230;18.944;2024-03-23T09:27:49;8.37;;;7.03;;
63534;SDS011;55128;50.230;18.944;2024-03-23T09:32:50;7.05;;;6.35;;
63534;SDS011;55128;50.230;18.944;2024-03-23T09:37:50;7.05;;;5.90;;
63534;SDS011;55128;50.230;18.944;2024-03-23T09:42:51;6.93;;;6.10;;
63534;SDS011;55128;50.230;18.944;2024-03-23T09:47:51;6.70;;;5.65;;
63534;SDS011;55128;50.230;18.944;2024-03-23T09:52:53;7.25;;;6.43;;
63534;SDS011;55128;50.230;18.944;2024-03-23T09:57:53;8.77;;;6.55;;
63534;SDS011;55128;50.230;18.944;2024-03-23T10:02:57;7.97;;;5.97;;
63534;SDS011;55128;50.230;18.944;2024-03-23T10:18:25;9.70;;;6.18;;
63534;SDS011;55128;50.230;18.944;2024-03-23T10:23:25;7.93;;;5.85;;
63534;SDS011;55128;50.230;18.944;2024-03-23T10:28:29;12.25;;;7.93;;
63534;SDS011;55128;50.230;18.944;2024-03-23T10:33:29;10.35;;;5.57;;
63534;SDS011;55128;50.230;18.944;2024-03-23T10:38:30;6.75;;;4.90;;
63534;SDS011;55128;50.230;18.944;2024-03-23T10:43:32;8.73;;;5.10;;
63534;SDS011;55128;50.230;18.944;2024-03-23T10:48:33;11.32;;;5.30;;
63534;SDS011;55128;50.230;18.944;2024-03-23T10:53:34;6.70;;;5.00;;
63534;SDS011;55128;50.230;18.944;2024-03-23T10:58:38;7.55;;;4.95;;
63534;SDS011;55128;50.230;18.944;2024-03-23T11:03:47;6.22;;;4.70;;
63534;SDS011;55128;50.230;18.944;2024-03-23T11:08:47;5.63;;;4.20;;
63534;SDS011;55128;50.230;18.944;2024-03-23T11:13:48;8.20;;;5.00;;
63534;SDS011;55128;50.230;18.944;2024-03-23T11:18:50;9.15;;;4.90;;
63534;SDS011;55128;50.230;18.944;2024-03-23T11:23:51;6.63;;;4.38;;
63534;SDS011;55128;50.230;18.944;2024-03-23T11:29:08;8.15;;;4.85;;
63534;SDS011;55128;50.230;18.944;2024-03-23T11:34:09;6.30;;;3.65;;
63534;SDS011;55128;50.230;18.944;2024-03-23T11:39:16;6.88;;;3.28;;
63534;SDS011;55128;50.230;18.944;2024-03-23T11:44:18;5.35;;;3.92;;
63534;SDS011;55128;50.230;18.944;2024-03-23T11:49:23;4.63;;;3.10;;
63534;SDS011;55128;50.230;18.944;2024-03-23T11:54:25;4.88;;;2.45;;
63534;SDS011;55128;50.230;18.944;2024-03-23T11:59:45;3.97;;;2.80;;
63534;SDS011;55128;50.230;18.944;2024-03-23T12:04:45;5.30;;;2.60;;
63534;SDS011;55128;50.230;18.944;2024-03-23T12:10:04;4.07;;;2.40;;
63534;SDS011;55128;50.230;18.944;2024-03-23T12:15:08;4.18;;;2.28;;
63534;SDS011;55128;50.230;18.944;2024-03-23T12:20:12;3.30;;;1.70;;
63534;SDS011;55128;50.230;18.944;2024-03-23T12:25:13;3.28;;;2.35;;
63534;SDS011;55128;50.230;18.944;2024-03-23T12:30:13;3.37;;;2.00;;
63534;SDS011;55128;50.230;18.944;2024-03-23T12:35:14;3.65;;;1.83;;
63534;SDS011;55128;50.230;18.944;2024-03-23T12:40:14;2.90;;;1.92;;
63534;SDS011;55128;50.230;18.944;2024-03-23T12:45:15;2.58;;;1.65;;
63534;SDS011;55128;50.230;18.944;2024-03-23T12:50:15;3.53;;;1.83;;
63534;SDS011;55128;50.230;18.944;2024-03-23T12:55:15;4.50;;;1.98;;
63534;SDS011;55128;50.230;18.944;2024-03-23T13:00:16;3.58;;;1.50;;
63534;SDS011;55128;50.230;18.944;2024-03-23T13:05:17;2.17;;;1.38;;
63534;SDS011;55128;50.230;18.944;2024-03-23T13:10:17;4.68;;;1.83;;
63534;SDS011;55128;50.230;18.944;2024-03-23T13:15:17;3.53;;;1.60;;
63534;SDS011;55128;50.230;18.944;2024-03-23T13:20:19;4.18;;;1.70;;
63534;SDS011;55128;50.230;18.944;2024-03-23T13:25:20;4.65;;;2.10;;
63534;SDS011;55128;50.230;18.944;2024-03-23T13:30:21;2.45;;;1.85;;
63534;SDS011;55128;50.230;18.944;2024-03-23T13:35:21;3.72;;;1.75;;
63534;SDS011;55128;50.230;18.944;2024-03-23T13:40:22;2.78;;;1.60;;
63534;SDS011;55128;50.230;18.944;2024-03-23T13:45:23;5.77;;;1.40;;
63534;SDS011;55128;50.230;18.944;2024-03-23T13:50:23;4.47;;;1.30;;
63534;SDS011;55128;50.230;18.944;2024-03-23T13:55:24;3.10;;;0.93;;
63534;SDS011;55128;50.230;18.944;2024-03-23T14:00:24;3.85;;;1.00;;
63534;SDS011;55128;50.230;18.944;2024-03-23T14:05:25;2.20;;;0.90;;
63534;SDS011;55128;50.230;18.944;2024-03-23T14:10:25;4.43;;;1.65;;
63534;SDS011;55128;50.230;18.944;2024-03-23T14:15:27;6.03;;;2.05;;
63534;SDS011;55128;50.230;18.944;2024-03-23T14:20:28;4.03;;;1.48;;
63534;SDS011;55128;50.230;18.944;2024-03-23T14:25:28;5.22;;;1.95;;
63534;SDS011;55128;50.230;18.944;2024-03-23T14:30:29;4.38;;;1.80;;
63534;SDS011;55128;50.230;18.944;2024-03-23T14:35:30;3.70;;;2.42;;
63534;SDS011;55128;50.230;18.944;2024-03-23T14:40:31;3.95;;;2.10;;
63534;SDS011;55128;50.230;18.944;2024-03-23T14:45:31;5.40;;;2.50;;
63534;SDS011;55128;50.230;18.944;2024-03-23T14:50:32;3.87;;;2.23;;
63534;SDS011;55128;50.230;18.944;2024-03-23T14:55:34;6.28;;;3.45;;
63534;SDS011;55128;50.230;18.944;2024-03-23T15:00:34;4.53;;;2.08;;
63534;SDS011;55128;50.230;18.944;2024-03-23T15:05:35;2.30;;;1.35;;
63534;SDS011;55128;50.230;18.944;2024-03-23T15:10:38;2.35;;;1.15;;
63534;SDS011;55128;50.230;18.944;2024-03-23T15:15:42;3.63;;;1.30;;
63534;SDS011;55128;50.230;18.944;2024-03-23T15:20:52;3.15;;;1.88;;
63534;SDS011;55128;50.230;18.944;2024-03-23T15:26:02;3.65;;;2.20;;
63534;SDS011;55128;50.230;18.944;2024-03-23T15:31:05;6.72;;;3.80;;
63534;SDS011;55128;50.230;18.944;2024-03-23T15:36:05;7.65;;;4.22;;
63534;SDS011;55128;50.230;18.944;2024-03-23T15:41:06;9.38;;;4.82;;
63534;SDS011;55128;50.230;18.944;2024-03-23T15:46:07;7.80;;;5.20;;
63534;SDS011;55128;50.230;18.944;2024-03-23T15:51:10;9.35;;;6.10;;
63534;SDS011;55128;50.230;18.944;2024-03-23T15:56:10;13.10;;;6.47;;
63534;SDS011;55128;50.230;18.944;2024-03-23T16:01:10;8.77;;;6.68;;
63534;SDS011;55128;50.230;18.944;2024-03-23T16:06:11;11.30;;;7.38;;
63534;SDS011;55128;50.230;18.944;2024-03-23T16:11:11;11.10;;;7.93;;
63534;SDS011;55128;50.230;18.944;2024-03-23T16:16:12;13.18;;;8.60;;
63534;SDS011;55128;50.230;18.944;2024-03-23T16:21:12;12.68;;;8.00;;
63534;SDS011;55128;50.230;18.944;2024-03-23T16:26:13;10.95;;;7.18;;
63534;SDS011;55128;50.230;18.944;2024-03-23T16:31:16;10.68;;;6.82;;
63534;SDS011;55128;50.230;18.944;2024-03-23T16:36:17;9.73;;;6.47;;
63534;SDS011;55128;50.230;18.944;2024-03-23T16:41:18;5.60;;;3.63;;
63534;SDS011;55128;50.230;18.944;2024-03-23T16:46:18;6.93;;;3.63;;
63534;SDS011;55128;50.230;18.944;2024-03-23T16:51:19;5.28;;;2.70;;
63534;SDS011;55128;50.230;18.944;2024-03-23T16:56:20;4.03;;;2.37;;
63534;SDS011;55128;50.230;18.944;2024-03-23T17:01:21;4.80;;;2.90;;
63534;SDS011;55128;50.230;18.944;2024-03-23T17:06:23;4.22;;;2.97;;
63534;SDS011;55128;50.230;18.944;2024-03-23T17:11:25;5.57;;;3.92;;
63534;SDS011;55128;50.230;18.944;2024-03-23T17:16:26;6.05;;;3.72;;
63534;SDS011;55128;50.230;18.944;2024-03-23T17:21:30;5.07;;;3.80;;
63534;SDS011;55128;50.230;18.944;2024-03-23T17:26:56;5.13;;;3.65;;
63534;SDS011;55128;50.230;18.944;2024-03-23T17:31:56;6.28;;;3.70;;
63534;SDS011;55128;50.230;18.944;2024-03-23T17:36:56;6.32;;;4.82;;
63534;SDS011;55128;50.230;18.944;2024-03-23T17:41:57;5.37;;;4.33;;
63534;SDS011;55128;50.230;18.944;2024-03-23T17:46:57;5.22;;;3.70;;
63534;SDS011;55128;50.230;18.944;2024-03-23T17:52:00;5.50;;;4.05;;
63534;SDS011;55128;50.230;18.944;2024-03-23T17:57:11;6.55;;;4.25;;
63534;SDS011;55128;50.230;18.944;2024-03-23T18:02:13;5.30;;;4.13;;
63534;SDS011;55128;50.230;18.944;2024-03-23T18:07:15;6.43;;;3.72;;
63534;SDS011;55128;50.230;18.944;2024-03-23T18:12:16;6.25;;;4.00;;
63534;SDS011;55128;50.230;18.944;2024-03-23T18:17:17;7.03;;;3.92;;
63534;SDS011;55128;50.230;18.944;2024-03-23T18:22:17;6.10;;;3.70;;
63534;SDS011;55128;50.230;18.944;2024-03-23T18:27:18;7.15;;;5.00;;
63534;SDS011;55128;50.230;18.944;2024-03-23T18:32:18;6.07;;;4.65;;
63534;SDS011;55128;50.230;18.944;2024-03-23T18:37:18;4.60;;;3.88;;
63534;SDS011;55128;50.230;18.944;2024-03-23T18:42:19;7.70;;;5.22;;
63534;SDS011;55128;50.230;18.944;2024-03-23T18:47:19;7.68;;;4.75;;
63534;SDS011;55128;50.230;18.944;2024-03-23T18:52:20;7.43;;;5.27;;
63534;SDS011;55128;50.230;18.944;2024-03-23T18:57:21;7.32;;;5.47;;
63534;SDS011;55128;50.230;18.944;2024-03-23T19:02:21;5.88;;;4.43;;
63534;SDS011;55128;50.230;18.944;2024-03-23T19:07:22;6.93;;;4.97;;
63534;SDS011;55128;50.230;18.944;2024-03-23T19:12:22;7.13;;;4.28;;
63534;SDS011;55128;50.230;18.944;2024-03-23T19:17:23;5.10;;;3.40;;
63534;SDS011;55128;50.230;18.944;2024-03-23T19:22:24;4.93;;;3.30;;
63534;SDS011;55128;50.230;18.944;2024-03-23T19:27:24;4.88;;;3.25;;
63534;SDS011;55128;50.230;18.944;2024-03-23T19:32:24;6.65;;;3.20;;
63534;SDS011;55128;50.230;18.944;2024-03-23T19:37:26;4.25;;;2.97;;
63534;SDS011;55128;50.230;18.944;2024-03-23T19:42:35;4.63;;;2.77;;
63534;SDS011;55128;50.230;18.944;2024-03-23T19:47:40;4.93;;;3.20;;
63534;SDS011;55128;50.230;18.944;2024-03-23T19:52:40;6.07;;;3.20;;
63534;SDS011;55128;50.230;18.944;2024-03-23T19:57:41;5.43;;;2.95;;
63534;SDS011;55128;50.230;18.944;2024-03-23T20:02:45;7.10;;;2.63;;
63534;SDS011;55128;50.230;18.944;2024-03-23T20:07:48;4.13;;;2.42;;
63534;SDS011;55128;50.230;18.944;2024-03-23T20:12:51;3.50;;;2.17;;
63534;SDS011;55128;50.230;18.944;2024-03-23T20:17:54;4.95;;;2.50;;
63534;SDS011;55128;50.230;18.944;2024-03-23T20:22:55;4.30;;;2.50;;
63534;SDS011;55128;50.230;18.944;2024-03-23T20:27:55;6.20;;;3.42;;
63534;SDS011;55128;50.230;18.944;2024-03-23T20:32:55;8.35;;;4.10;;
63534;SDS011;55128;50.230;18.944;2024-03-23T20:37:56;8.52;;;4.47;;
63534;SDS011;55128;50.230;18.944;2024-03-23T20:42:56;7.67;;;4.37;;
63534;SDS011;55128;50.230;18.944;2024-03-23T20:48:13;4.40;;;2.25;;
63534;SDS011;55128;50.230;18.944;2024-03-23T20:53:13;4.43;;;2.40;;
63534;SDS011;55128;50.230;18.944;2024-03-23T20:58:13;3.55;;;2.03;;
63534;SDS011;55128;50.230;18.944;2024-03-23T21:03:14;3.85;;;2.25;;
63534;SDS011;55128;50.230;18.944;2024-03-23T21:08:15;6.10;;;2.90;;
63534;SDS011;55128;50.230;18.944;2024-03-23T21:13:15;4.60;;;2.17;;
63534;SDS011;55128;50.230;18.944;2024-03-23T21:18:17;5.30;;;2.90;;
63534;SDS011;55128;50.230;18.944;2024-03-23T21:23:18;7.20;;;2.47;;
63534;SDS011;55128;50.230;18.944;2024-03-23T21:28:19;7.18;;;2.63;;
63534;SDS011;55128;50.230;18.944;2024-03-23T21:33:23;6.88;;;3.13;;
63534;SDS011;55128;50.230;18.944;2024-03-23T21:38:23;6.28;;;2.70;;
63534;SDS011;55128;50.230;18.944;2024-03-23T21:43:24;12.02;;;3.47;;
63534;SDS011;55128;50.230;18.944;2024-03-23T21:48:26;8.73;;;3.80;;
63534;SDS011;55128;50.230;18.944;2024-03-23T21:53:34;6.70;;;2.88;;
63534;SDS011;55128;50.230;18.944;2024-03-23T21:58:35;5.68;;;2.90;;
63534;SDS011;55128;50.230;18.944;2024-03-23T22:03:35;8.20;;;2.15;;
63534;SDS011;55128;50.230;18.944;2024-03-23T22:08:36;5.60;;;2.20;;
63534;SDS011;55128;50.230;18.944;2024-03-23T22:13:39;6.10;;;2.20;;
63534;SDS011;55128;50.230;18.944;2024-03-23T22:18:42;5.32;;;2.05;;
63534;SDS011;55128;50.230;18.944;2024-03-23T22:23:42;5.70;;;2.37;;
63534;SDS011;55128;50.230;18.944;2024-03-23T22:28:45;6.20;;;2.38;;
63534;SDS011;55128;50.230;18.944;2024-03-23T22:33:46;5.67;;;2.60;;
63534;SDS011;55128;50.230;18.944;2024-03-23T22:38:46;6.72;;;2.38;;
63534;SDS011;55128;50.230;18.944;2024-03-23T22:43:47;9.07;;;2.70;;
63534;SDS011;55128;50.230;18.944;2024-03-23T22:48:47;7.15;;;2.42;;
63534;SDS011;55128;50.230;18.944;2024-03-23T22:53:48;4.18;;;2.35;;
63534;SDS011;55128;50.230;18.944;2024-03-23T22:58:48;10.37;;;3.77;;
63534;SDS011;55128;50.230;18.944;2024-03-23T23:03:48;10.05;;;3.65;;
63534;SDS011;55128;50.230;18.944;2024-03-23T23:08:49;5.63;;;2.70;;
63534;SDS011;55128;50.230;18.944;2024-03-23T23:13:49;5.30;;;2.73;;
63534;SDS011;55128;50.230;18.944;2024-03-23T23:18:49;4.25;;;2.88;;
63534;SDS011;55128;50.230;18.944;2024-03-23T23:23:50;7.10;;;3.45;;
63534;SDS011;55128;50.230;18.944;2024-03-23T23:28:50;10.00;;;3.53;;
63534;SDS011;55128;50.230;18.944;2024-03-23T23:33:51;7.63;;;4.10;;
63534;SDS011;55128;50.230;18.944;2024-03-23T23:38:51;8.43;;;4.20;;
63534;SDS011;55128;50.230;18.944;2024-03-23T23:43:55;12.32;;;4.45;;
63534;SDS011;55128;50.230;18.944;2024-03-23T23:48:57;8.13;;;3.50;;
63534;SDS011;55128;50.230;18.944;2024-03-23T23:53:58;7.13;;;3.05;;
63534;SDS011;55128;50.230;18.944;2024-03-23T23:58:58;5.78;;;2.85;;
